createdAt,value
2018-07-27T00:01:42.907Z,90.50
2018-07-27T00:04:11.987Z,90.80
2018-07-27T00:06:40.991Z,90.80
2018-07-27T00:09:11.944Z,91.10
2018-07-27T00:11:41.475Z,91.70
2018-07-27T00:14:10.478Z,91.50
2018-07-27T00:16:39.442Z,91.40
2018-07-27T00:19:08.459Z,91.50
2018-07-27T00:21:37.438Z,91.90
2018-07-27T00:24:06.439Z,92.00
2018-07-27T00:26:35.446Z,92.40
2018-07-27T00:29:04.438Z,92.90
2018-07-27T00:31:33.414Z,93.00
2018-07-27T00:34:02.409Z,93.20
2018-07-27T00:36:31.382Z,93.10
2018-07-27T00:39:00.354Z,93.50
2018-07-27T00:41:29.330Z,93.90
2018-07-27T00:43:58.294Z,94.60
2018-07-27T00:46:27.302Z,94.80
2018-07-27T00:48:56.282Z,95.00
2018-07-27T00:51:25.218Z,95.30
2018-07-27T00:53:54.230Z,95.70
2018-07-27T00:56:23.186Z,96.20
2018-07-27T00:58:52.139Z,96.70
2018-07-27T01:01:21.091Z,97.30
2018-07-27T01:03:50.072Z,97.20
2018-07-27T01:06:19.134Z,97.40
2018-07-27T01:08:48.087Z,97.90
2018-07-27T01:11:17.062Z,98.20
2018-07-27T01:13:46.055Z,98.60
2018-07-27T01:16:15.064Z,98.80
2018-07-27T01:18:44.047Z,99.10
2018-07-27T01:21:13.026Z,99.60
2018-07-27T01:23:42.002Z,99.90
2018-07-27T01:26:10.957Z,99.90
2018-07-27T01:28:39.924Z,99.90
2018-07-27T01:31:08.882Z,99.90
2018-07-27T01:33:37.858Z,99.90
2018-07-27T01:36:06.830Z,99.90
2018-07-27T01:38:35.816Z,99.90
2018-07-27T01:41:04.786Z,99.90
2018-07-27T01:43:33.895Z,99.90
2018-07-27T01:46:02.842Z,99.90
2018-07-27T01:48:31.894Z,99.90
2018-07-27T01:51:00.872Z,99.90
2018-07-27T01:53:29.881Z,99.90
2018-07-27T01:55:58.839Z,99.90
2018-07-27T01:58:27.905Z,99.90
2018-07-27T02:00:56.858Z,99.90
2018-07-27T02:03:25.888Z,99.90
2018-07-27T02:05:54.829Z,99.90
2018-07-27T02:08:23.874Z,99.90
2018-07-27T02:10:52.818Z,99.90
2018-07-27T02:13:21.766Z,99.90
2018-07-27T02:15:50.819Z,99.90
2018-07-27T02:18:19.806Z,99.90
2018-07-27T02:20:48.768Z,99.90
2018-07-27T02:23:17.721Z,99.90
2018-07-27T02:25:46.670Z,99.90
2018-07-27T02:28:15.630Z,99.90
2018-07-27T02:30:44.594Z,99.90
2018-07-27T02:33:13.558Z,99.90
2018-07-27T02:35:42.531Z,99.90
2018-07-27T02:38:11.490Z,99.90
2018-07-27T02:40:40.494Z,99.90
2018-07-27T02:43:09.446Z,99.90
2018-07-27T02:45:38.390Z,99.90
2018-07-27T02:48:07.424Z,99.90
2018-07-27T02:50:36.371Z,99.90
2018-07-27T02:55:44.434Z,99.90
2018-07-27T02:58:13.483Z,99.90
2018-07-27T03:00:42.446Z,99.90
2018-07-27T03:03:11.444Z,99.90
2018-07-27T03:05:40.475Z,99.90
2018-07-27T03:08:09.439Z,99.90
2018-07-27T03:10:38.550Z,99.90
2018-07-27T03:13:07.531Z,99.90
2018-07-27T03:15:36.510Z,99.90
2018-07-27T03:18:05.465Z,99.90
2018-07-27T03:20:34.421Z,99.90
2018-07-27T03:23:03.409Z,99.90
2018-07-27T03:25:32.367Z,99.90
2018-07-27T03:28:01.460Z,99.90
2018-07-27T03:30:30.502Z,99.90
2018-07-27T03:32:59.486Z,99.90
2018-07-27T03:35:28.474Z,99.90
2018-07-27T03:37:57.449Z,99.90
2018-07-27T03:40:26.435Z,99.90
2018-07-27T03:42:55.419Z,99.90
2018-07-27T03:45:24.362Z,99.90
2018-07-27T03:47:53.318Z,99.90
2018-07-27T03:50:22.265Z,99.90
2018-07-27T03:52:51.239Z,99.90
2018-07-27T03:55:20.178Z,99.90
2018-07-27T03:57:49.182Z,99.90
2018-07-27T04:00:18.238Z,99.90
2018-07-27T04:02:47.232Z,99.90
2018-07-27T04:05:16.193Z,99.90
2018-07-27T04:07:45.138Z,99.90
2018-07-27T04:10:14.095Z,99.90
2018-07-27T04:12:43.175Z,99.90
2018-07-27T04:15:12.150Z,99.90
2018-07-27T04:17:46.551Z,99.90
2018-07-27T04:20:15.512Z,99.90
2018-07-27T04:22:44.555Z,99.90
2018-07-27T04:25:13.547Z,99.90
2018-07-27T04:27:42.508Z,99.90
2018-07-27T04:30:11.474Z,99.90
2018-07-27T04:32:40.551Z,99.90
2018-07-27T04:35:09.538Z,99.90
2018-07-27T04:37:38.564Z,99.90
2018-07-27T04:40:07.670Z,99.90
2018-07-27T04:42:36.634Z,99.90
2018-07-27T04:45:05.868Z,99.90
2018-07-27T04:47:34.840Z,99.90
2018-07-27T04:50:06.336Z,99.90
2018-07-27T04:52:35.294Z,99.90
2018-07-27T04:55:04.335Z,99.90
2018-07-27T04:57:33.286Z,99.90
2018-07-27T05:00:02.615Z,99.90
2018-07-27T05:02:31.619Z,99.90
2018-07-27T05:05:00.602Z,99.90
2018-07-27T05:07:29.638Z,99.90
2018-07-27T05:09:58.644Z,99.90
2018-07-27T05:12:27.790Z,99.90
2018-07-27T05:14:56.993Z,99.90
2018-07-27T05:17:25.958Z,99.90
2018-07-27T05:19:54.929Z,99.90
2018-07-27T05:22:23.957Z,99.90
2018-07-27T05:24:52.923Z,99.90
2018-07-27T05:27:21.886Z,99.90
2018-07-27T05:29:50.902Z,99.90
2018-07-27T05:32:19.862Z,99.90
2018-07-27T05:34:48.946Z,99.90
2018-07-27T05:37:17.934Z,99.90
2018-07-27T05:39:46.898Z,99.90
2018-07-27T05:42:15.971Z,99.90
2018-07-27T05:44:44.923Z,99.90
2018-07-27T05:47:13.900Z,99.90
2018-07-27T05:49:42.936Z,99.90
2018-07-27T05:52:11.962Z,99.90
2018-07-27T05:54:40.951Z,99.90
2018-07-27T05:57:09.936Z,99.90
2018-07-27T05:59:38.882Z,99.90
2018-07-27T06:02:10.438Z,99.90
2018-07-27T06:04:38.375Z,99.90
2018-07-27T06:07:07.415Z,99.90
2018-07-27T06:09:36.426Z,99.90
2018-07-27T06:12:05.466Z,99.90
2018-07-27T06:14:34.494Z,99.90
2018-07-27T06:19:32.071Z,99.90
2018-07-27T06:22:01.051Z,99.90
2018-07-27T06:24:38.795Z,99.90
2018-07-27T06:27:07.798Z,99.90
2018-07-27T06:29:36.771Z,99.90
2018-07-27T06:32:05.817Z,99.90
2018-07-27T06:34:34.802Z,99.90
2018-07-27T06:37:03.785Z,99.90
2018-07-27T06:39:32.820Z,99.90
2018-07-27T06:42:01.809Z,99.90
2018-07-27T06:44:30.943Z,99.90
2018-07-27T06:46:59.911Z,99.90
2018-07-27T06:49:28.983Z,99.90
2018-07-27T06:51:58.002Z,99.90
2018-07-27T06:54:26.967Z,99.90
2018-07-27T06:56:55.971Z,99.90
2018-07-27T06:59:24.930Z,99.90
2018-07-27T07:01:53.884Z,99.90
2018-07-27T07:04:22.975Z,99.90
2018-07-27T07:06:51.935Z,98.10
2018-07-27T07:09:20.967Z,97.40
2018-07-27T07:11:52.304Z,95.10
2018-07-27T07:14:22.353Z,93.90
2018-07-27T07:16:51.362Z,93.20
2018-07-27T07:19:20.338Z,92.00
2018-07-27T07:21:49.378Z,91.40
2018-07-27T07:24:18.427Z,90.80
2018-07-27T07:26:47.412Z,89.80
2018-07-27T07:29:16.745Z,86.90
2018-07-27T07:31:45.740Z,83.00
2018-07-27T07:34:14.718Z,81.10
2018-07-27T07:36:43.694Z,79.70
2018-07-27T07:39:13.183Z,79.50
2018-07-27T07:41:42.466Z,79.20
2018-07-27T07:44:11.406Z,77.10
2018-07-27T07:46:40.619Z,76.40
2018-07-27T07:49:09.571Z,76.80
2018-07-27T07:51:38.848Z,75.30
2018-07-27T07:54:07.794Z,74.90
2018-07-27T07:56:36.786Z,73.30
2018-07-27T07:59:05.779Z,71.20
2018-07-27T08:01:34.799Z,70.40
2018-07-27T08:04:03.794Z,70.90
2018-07-27T08:06:33.647Z,69.50
2018-07-27T08:09:02.650Z,68.50
2018-07-27T08:11:31.690Z,67.60
2018-07-27T08:14:00.742Z,67.70
2018-07-27T08:16:29.719Z,67.20
2018-07-27T08:18:58.680Z,66.60
2018-07-27T08:21:28.084Z,65.10
2018-07-27T08:23:57.227Z,64.70
2018-07-27T08:26:35.778Z,65.90
2018-07-27T08:29:04.963Z,65.30
2018-07-27T08:31:34.203Z,65.00
2018-07-27T08:34:03.286Z,63.30
2018-07-27T08:36:33.309Z,61.90
2018-07-27T08:39:03.847Z,61.40
2018-07-27T08:41:33.107Z,62.80
2018-07-27T08:44:02.202Z,61.50
2018-07-27T08:46:31.162Z,61.10
2018-07-27T08:49:00.127Z,63.00
2018-07-27T08:51:29.263Z,61.40
2018-07-27T08:53:58.357Z,59.90
2018-07-27T08:56:27.343Z,59.50
2018-07-27T08:58:56.331Z,59.30
2018-07-27T09:01:25.490Z,60.10
2018-07-27T09:03:54.529Z,60.70
2018-07-27T09:06:23.479Z,62.00
2018-07-27T09:08:52.774Z,62.40
2018-07-27T09:11:22.290Z,64.20
2018-07-27T09:13:51.633Z,66.40
2018-07-27T09:16:20.886Z,66.80
2018-07-27T09:18:50.226Z,68.80
2018-07-27T09:21:19.242Z,69.40
2018-07-27T09:23:48.226Z,69.80
2018-07-27T09:26:17.203Z,70.80
2018-07-27T09:28:46.174Z,71.30
2018-07-27T09:31:15.124Z,71.40
2018-07-27T09:33:44.106Z,72.70
2018-07-27T09:36:13.113Z,73.80
2018-07-27T09:38:42.096Z,71.40
2018-07-27T09:41:11.080Z,72.90
2018-07-27T09:43:40.202Z,73.80
2018-07-27T09:46:09.184Z,74.60
2018-07-27T09:48:38.134Z,74.90
2018-07-27T09:51:07.083Z,75.70
2018-07-27T09:53:36.134Z,76.70
2018-07-27T09:56:05.134Z,76.30
2018-07-27T09:58:34.189Z,76.70
2018-07-27T10:01:09.031Z,74.90
2018-07-27T10:03:38.006Z,76.50
2018-07-27T10:06:06.964Z,75.80
2018-07-27T10:08:35.947Z,75.10
2018-07-27T10:11:05.802Z,75.70
2018-07-27T10:13:34.919Z,76.30
2018-07-27T10:16:03.900Z,76.60
2018-07-27T10:18:32.906Z,76.30
2018-07-27T10:21:01.814Z,76.10
2018-07-27T10:23:30.815Z,75.70
2018-07-27T10:25:59.890Z,75.50
2018-07-27T10:28:28.882Z,76.40
2018-07-27T10:30:57.854Z,75.80
2018-07-27T10:33:27.134Z,75.10
2018-07-27T10:35:57.648Z,76.20
2018-07-27T10:38:27.433Z,76.40
2018-07-27T10:40:57.290Z,77.80
2018-07-27T10:43:26.358Z,77.70
2018-07-27T10:45:55.339Z,77.70
2018-07-27T10:48:24.367Z,78.60
2018-07-27T10:50:53.515Z,80.30
2018-07-27T10:53:22.470Z,80.00
2018-07-27T10:55:51.438Z,81.80
2018-07-27T10:58:20.465Z,80.80
2018-07-27T11:00:49.506Z,77.90
2018-07-27T11:03:18.480Z,79.10
2018-07-27T11:05:47.431Z,79.30
2018-07-27T11:08:16.383Z,81.50
2018-07-27T11:10:45.345Z,79.20
2018-07-27T11:13:14.401Z,80.60
2018-07-27T11:15:43.338Z,85.30
2018-07-27T11:18:12.290Z,91.50
2018-07-27T11:20:41.260Z,86.30
2018-07-27T11:23:10.210Z,85.80
2018-07-27T11:25:39.225Z,87.40
2018-07-27T11:28:08.186Z,90.10
2018-07-27T11:30:37.246Z,90.60
2018-07-27T11:33:06.215Z,90.40
2018-07-27T11:35:35.220Z,90.90
2018-07-27T11:38:04.186Z,90.40
2018-07-27T11:40:33.154Z,90.60
2018-07-27T11:43:02.115Z,90.00
2018-07-27T11:45:31.091Z,91.00
2018-07-27T11:48:00.059Z,91.30
2018-07-27T11:50:29.079Z,89.60
2018-07-27T11:52:58.039Z,91.60
2018-07-27T11:55:26.998Z,92.60
2018-07-27T11:57:56.040Z,92.40
2018-07-27T12:00:25.053Z,93.30
2018-07-27T12:02:54.075Z,94.60
2018-07-27T12:05:23.063Z,96.00
2018-07-27T12:07:52.095Z,95.50
2018-07-27T12:10:21.098Z,96.30
2018-07-27T12:12:50.075Z,96.40
2018-07-27T12:15:19.253Z,96.10
2018-07-27T12:17:48.110Z,96.30
2018-07-27T12:20:17.066Z,96.60
2018-07-27T12:22:46.023Z,97.50
2018-07-27T12:25:14.995Z,98.20
2018-07-27T12:27:43.954Z,97.90
2018-07-27T12:30:12.962Z,97.90
2018-07-27T12:32:42.121Z,98.80
2018-07-27T12:35:11.054Z,98.40
2018-07-27T12:37:40.038Z,98.90
2018-07-27T12:40:10.191Z,99.30
2018-07-27T12:42:39.214Z,99.90
2018-07-27T12:45:08.172Z,99.90
2018-07-27T12:47:37.199Z,99.90
2018-07-27T12:50:06.171Z,99.90
2018-07-27T12:52:35.166Z,99.90
2018-07-27T12:55:04.599Z,99.90
2018-07-27T12:57:33.589Z,99.90
2018-07-27T13:00:02.545Z,99.90
2018-07-27T13:02:31.498Z,99.90
2018-07-27T13:05:00.476Z,99.90
2018-07-27T13:07:29.422Z,99.90
2018-07-27T13:10:04.383Z,99.90
2018-07-27T13:12:34.703Z,99.90
2018-07-27T13:15:04.419Z,99.90
2018-07-27T13:17:33.411Z,99.90
2018-07-27T13:20:02.391Z,99.90
2018-07-27T13:22:32.593Z,99.90
2018-07-27T13:25:01.478Z,99.90
2018-07-27T13:27:30.423Z,99.90
2018-07-27T13:29:59.742Z,99.90
2018-07-27T13:32:28.806Z,99.90
2018-07-27T13:34:58.791Z,99.90
2018-07-27T13:37:29.083Z,99.90
2018-07-27T13:39:59.119Z,99.60
2018-07-27T13:42:29.285Z,98.20
2018-07-27T13:44:58.312Z,98.60
2018-07-27T13:47:27.292Z,99.20
2018-07-27T13:49:56.248Z,99.10
2018-07-27T13:52:25.206Z,98.40
2018-07-27T13:54:54.226Z,97.70
2018-07-27T13:57:23.225Z,98.20
2018-07-27T13:59:52.202Z,97.70
2018-07-27T14:02:21.157Z,97.80
2018-07-27T14:04:50.119Z,99.10
2018-07-27T14:07:19.078Z,99.90
2018-07-27T14:09:48.114Z,99.90
2018-07-27T14:12:17.076Z,99.90
2018-07-27T14:14:46.026Z,98.40
2018-07-27T14:17:15.011Z,97.10
2018-07-27T14:19:43.978Z,95.70
2018-07-27T14:22:12.915Z,96.30
2018-07-27T14:24:41.911Z,97.00
2018-07-27T14:27:10.862Z,95.20
2018-07-27T14:29:39.971Z,96.30
2018-07-27T14:32:08.991Z,99.00
2018-07-27T14:34:38.058Z,99.80
2018-07-27T14:37:07.035Z,99.20
2018-07-27T14:39:36.024Z,99.00
2018-07-27T14:42:05.008Z,99.60
2018-07-27T14:44:33.971Z,99.70
2018-07-27T14:47:02.969Z,99.90
2018-07-27T14:49:31.960Z,99.90
2018-07-27T14:52:01.034Z,99.30
2018-07-27T14:54:29.999Z,98.00
2018-07-27T14:56:58.942Z,98.20
2018-07-27T14:59:27.925Z,97.80
2018-07-27T15:01:57.286Z,95.30
2018-07-27T15:04:26.266Z,94.00
2018-07-27T15:06:55.275Z,92.10
2018-07-27T15:09:24.306Z,88.60
2018-07-27T15:11:53.273Z,87.80
2018-07-27T15:14:22.235Z,85.30
2018-07-27T15:16:51.228Z,80.20
2018-07-27T15:19:20.193Z,76.80
2018-07-27T15:21:49.195Z,74.70
2018-07-27T15:24:18.243Z,72.00
2018-07-27T15:26:47.146Z,70.70
2018-07-27T15:29:16.147Z,69.60
2018-07-27T15:31:45.159Z,67.70
2018-07-27T15:34:14.161Z,67.80
2018-07-27T15:36:43.218Z,68.30
2018-07-27T15:39:12.168Z,69.00
2018-07-27T15:41:41.310Z,69.40
2018-07-27T15:44:10.286Z,68.40
2018-07-27T15:46:39.452Z,67.90
2018-07-27T15:49:11.029Z,67.70
2018-07-27T15:51:40.155Z,65.90
2018-07-27T15:54:09.146Z,65.40
2018-07-27T15:56:38.205Z,64.40
2018-07-27T15:59:07.211Z,64.50
2018-07-27T16:01:36.446Z,64.50
2018-07-27T16:04:05.413Z,62.80
2018-07-27T16:06:34.402Z,63.90
2018-07-27T16:09:04.450Z,63.50
2018-07-27T16:11:33.469Z,62.80
2018-07-27T16:14:02.655Z,62.50
2018-07-27T16:16:31.616Z,63.20
2018-07-27T16:19:00.672Z,59.30
2018-07-27T16:21:29.685Z,61.30
2018-07-27T16:23:58.690Z,65.70
2018-07-27T16:26:27.646Z,67.70
2018-07-27T16:28:56.862Z,68.30
2018-07-27T16:31:25.834Z,66.10
2018-07-27T16:33:54.817Z,65.00
2018-07-27T16:36:23.853Z,62.80
2018-07-27T16:38:52.842Z,64.60
2018-07-27T16:41:21.823Z,64.40
2018-07-27T16:43:50.758Z,66.60
2018-07-27T16:46:19.722Z,66.40
2018-07-27T16:48:48.701Z,67.60
2018-07-27T16:51:18.174Z,69.10
2018-07-27T16:53:47.452Z,69.20
2018-07-27T16:56:16.418Z,68.80
2018-07-27T16:58:47.250Z,66.80
2018-07-27T17:01:16.207Z,68.00
2018-07-27T17:03:45.205Z,67.90
2018-07-27T17:06:14.256Z,68.00
2018-07-27T17:08:43.170Z,68.30
2018-07-27T17:11:12.132Z,69.30
2018-07-27T17:13:41.202Z,71.60
2018-07-27T17:16:10.242Z,68.60
2018-07-27T17:18:39.231Z,68.40
2018-07-27T17:21:08.225Z,67.90
2018-07-27T17:23:37.210Z,69.60
2018-07-27T17:26:06.204Z,66.30
2018-07-27T17:28:35.262Z,65.30
2018-07-27T17:31:04.405Z,65.90
2018-07-27T17:33:33.430Z,66.50
2018-07-27T17:36:02.420Z,66.40
2018-07-27T17:38:31.471Z,67.00
2018-07-27T17:41:00.917Z,68.00
2018-07-27T17:43:29.870Z,66.40
2018-07-27T17:45:58.924Z,67.30
2018-07-27T17:48:27.901Z,66.40
2018-07-27T17:50:56.804Z,67.10
2018-07-27T17:53:25.767Z,67.90
2018-07-27T17:55:54.726Z,68.40
2018-07-27T17:58:23.745Z,67.80
2018-07-27T18:00:52.695Z,68.70
2018-07-27T18:03:21.920Z,70.80
2018-07-27T18:05:50.682Z,72.40
2018-07-27T18:08:19.594Z,70.60
2018-07-27T18:10:48.593Z,71.40
2018-07-27T18:13:17.592Z,72.60
2018-07-27T18:15:46.525Z,73.00
2018-07-27T18:18:15.508Z,74.10
2018-07-27T18:20:44.477Z,75.50
2018-07-27T18:23:13.442Z,76.40
2018-07-27T18:25:42.634Z,78.50
2018-07-27T18:28:11.647Z,78.80
2018-07-27T18:30:40.829Z,79.90
2018-07-27T18:33:09.787Z,80.50
2018-07-27T18:35:38.750Z,80.60
2018-07-27T18:38:07.743Z,81.10
2018-07-27T18:40:36.725Z,81.50
2018-07-27T18:43:05.798Z,81.70
2018-07-27T18:45:34.784Z,81.10
2018-07-27T18:48:03.754Z,82.30
2018-07-27T18:50:33.256Z,83.40
2018-07-27T18:53:02.238Z,83.00
2018-07-27T18:55:31.212Z,83.10
2018-07-27T18:58:00.222Z,84.60
2018-07-27T19:00:29.372Z,87.30
2018-07-27T19:02:58.326Z,88.10
2018-07-27T19:05:27.358Z,88.70
2018-07-27T19:07:56.447Z,89.70
2018-07-27T19:10:25.719Z,90.50
2018-07-27T19:12:54.721Z,91.20
2018-07-27T19:15:23.769Z,91.10
2018-07-27T19:17:53.326Z,91.10
2018-07-27T19:20:22.670Z,90.50
2018-07-27T19:22:51.638Z,91.00
2018-07-27T19:25:20.733Z,89.90
2018-07-27T19:27:50.804Z,88.30
2018-07-27T19:30:19.823Z,87.00
2018-07-27T19:32:48.796Z,86.80
2018-07-27T19:35:17.811Z,86.90
2018-07-27T19:37:46.762Z,87.10
2018-07-27T19:40:15.822Z,86.50
2018-07-27T19:42:44.775Z,86.40
2018-07-27T19:45:13.760Z,86.70
2018-07-27T19:47:42.879Z,91.00
2018-07-27T19:50:11.875Z,92.90
2018-07-27T19:52:40.874Z,93.80
2018-07-27T19:55:09.866Z,94.30
2018-07-27T19:57:38.822Z,95.10
2018-07-27T20:00:08.147Z,95.70
2018-07-27T20:02:37.119Z,96.30
2018-07-27T20:05:06.190Z,95.90
2018-07-27T20:07:35.146Z,96.20
2018-07-27T20:10:04.578Z,96.60
2018-07-27T20:12:33.682Z,97.20
2018-07-27T20:15:02.680Z,97.20
2018-07-27T20:17:31.659Z,97.90
2018-07-27T20:20:00.623Z,98.40
2018-07-27T20:22:29.576Z,99.00
2018-07-27T20:24:58.590Z,99.60
2018-07-27T20:27:27.570Z,99.80
2018-07-27T20:29:56.515Z,99.90
2018-07-27T20:32:25.767Z,99.90
2018-07-27T20:34:54.832Z,99.90
2018-07-27T20:37:23.854Z,99.90
2018-07-27T20:39:52.820Z,99.90
2018-07-27T20:42:21.835Z,99.90
2018-07-27T20:44:50.831Z,99.90
2018-07-27T20:47:19.850Z,99.90
2018-07-27T20:49:48.826Z,99.90
2018-07-27T20:52:17.806Z,99.90
2018-07-27T20:54:46.779Z,99.90
2018-07-27T20:57:15.739Z,99.90
2018-07-27T20:59:44.761Z,99.90
2018-07-27T21:02:13.719Z,99.90
2018-07-27T21:04:42.830Z,99.90
2018-07-27T21:07:11.790Z,99.90
2018-07-27T21:09:40.885Z,99.90
2018-07-27T21:12:09.838Z,99.90
2018-07-27T21:14:38.899Z,99.90
2018-07-27T21:17:11.606Z,99.90
2018-07-27T21:19:43.130Z,99.90
2018-07-27T21:22:12.251Z,99.90
2018-07-27T21:24:41.320Z,99.90
2018-07-27T21:27:13.433Z,99.90
2018-07-27T21:29:46.309Z,99.90
2018-07-27T21:32:15.430Z,99.90
2018-07-27T21:34:44.412Z,99.90
2018-07-27T21:37:13.398Z,99.90
2018-07-27T21:39:42.557Z,99.90
2018-07-27T21:42:11.873Z,99.90
2018-07-27T21:44:40.818Z,99.90
2018-07-27T21:47:09.991Z,99.90
2018-07-27T21:49:39.141Z,99.90
2018-07-27T21:52:08.103Z,99.90
2018-07-27T21:54:37.094Z,99.90
2018-07-27T21:57:06.138Z,99.90
2018-07-27T21:59:35.339Z,99.90
2018-07-27T22:02:04.343Z,99.90
2018-07-27T22:04:33.359Z,99.90
2018-07-27T22:07:02.391Z,99.90
2018-07-27T22:09:31.350Z,99.90
2018-07-27T22:12:00.344Z,99.90
2018-07-27T22:14:29.367Z,99.90
2018-07-27T22:16:58.514Z,99.90
2018-07-27T22:19:28.527Z,99.90
2018-07-27T22:21:57.899Z,99.90
2018-07-27T22:24:26.951Z,99.90
2018-07-27T22:26:56.078Z,99.90
2018-07-27T22:29:25.346Z,99.90
2018-07-27T22:31:54.332Z,99.90
2018-07-27T22:34:23.386Z,99.90
2018-07-27T22:36:52.607Z,99.90
2018-07-27T22:39:21.622Z,99.90
2018-07-27T22:41:50.736Z,99.90
2018-07-27T22:44:19.837Z,99.90
2018-07-27T22:46:48.833Z,99.90
2018-07-27T22:49:17.824Z,99.90
2018-07-27T22:51:46.863Z,99.90
2018-07-27T22:54:15.910Z,99.90
2018-07-27T22:56:45.322Z,99.90
2018-07-27T22:59:14.260Z,99.90
2018-07-27T23:01:43.310Z,99.90
2018-07-27T23:04:12.907Z,99.90
2018-07-27T23:06:41.898Z,99.90
2018-07-27T23:09:11.463Z,99.90
2018-07-27T23:11:40.423Z,99.90
2018-07-27T23:14:09.492Z,99.90
2018-07-27T23:16:38.479Z,99.90
2018-07-27T23:19:07.447Z,99.90
2018-07-27T23:21:36.498Z,99.90
2018-07-27T23:24:05.637Z,99.90
2018-07-27T23:26:34.643Z,99.90
2018-07-27T23:29:03.634Z,99.90
2018-07-27T23:31:32.617Z,99.90
2018-07-27T23:34:01.631Z,99.90
2018-07-27T23:36:30.642Z,99.90
2018-07-27T23:38:59.624Z,99.90
2018-07-27T23:41:28.635Z,99.90
2018-07-27T23:43:57.654Z,99.90
2018-07-27T23:46:26.636Z,99.90
2018-07-27T23:48:55.603Z,99.90
2018-07-27T23:51:24.570Z,99.90
2018-07-27T23:53:53.555Z,99.90
2018-07-27T23:56:22.563Z,99.90
2018-07-27T23:58:51.527Z,99.90
